PWSweather.com
Personal Weather Stations
Station Observations
DW1039
Liberty & Fairfield Townships, Hamilton, OH 45011

Liberty & Fairfield TownshipsHamilton, OH 45011

Lat: 39.3933, Lon: -84.477

Elevation: 780

Station Type: Davis Vantage Pro2 (Daytime Fan Aspirated)

http://www.lfweathercenter.com/

High Low Average
Temperature 87.0°F30.6°C 67.9°F19.9°C 76.0°F24.4°C
Dew Point 75.7°F24.3°C 63.9°F17.7°C 69.5°F20.8°C
Winds 5.0 mph 8.0 kmh Calm Calm 1.0 mph S1.6 kmh S
Wind Gusts 9.0 mph14.5 kmh -- 2.0 mph3.2 kmh
Humidity 87% 66% 81%
Pressure 29.96 in1014.6 mb 29.86 in1011.2 mb -
Precipitation 0.00 in0.0 mm - -
Hour Temp Dew Point Humidity Winds Wind Gusts Pressure Precip Precip Rate Daily Precip Total
12:00 AM 71.1°F21.7°C 66.7°F19.3°C 86% Calm Calm -- 29.97 in1014.9 mb 0.00 in0.0 mm 0.00 in0.0 mm 0.00 in0.0 mm
12:10 AM 70.9°F21.6°C 66.5°F19.2°C 86% Calm Calm -- 29.97 in1014.9 mb 0.00 in0.0 mm 0.00 in0.0 mm 0.00 in0.0 mm
12:20 AM 70.7°F21.5°C 66.3°F19.1°C 86% Calm Calm -- 29.96 in1014.6 mb 0.00 in0.0 mm 0.00 in0.0 mm 0.00 in0.0 mm
12:30 AM 70.4°F21.3°C 66.4°F19.1°C 87% Calm Calm -- 29.96 in1014.6 mb 0.00 in0.0 mm 0.00 in0.0 mm 0.00 in0.0 mm
12:40 AM 70.3°F21.3°C 66.3°F19.1°C 87% Calm Calm -- 29.96 in1014.6 mb 0.00 in0.0 mm 0.00 in0.0 mm 0.00 in0.0 mm
12:50 AM 70.2°F21.2°C 66.2°F19.0°C 87% Calm Calm -- 29.95 in1014.2 mb 0.00 in0.0 mm 0.00 in0.0 mm 0.00 in0.0 mm
01:00 AM 70.1°F21.2°C 66.1°F18.9°C 87% Calm Calm -- 29.95 in1014.2 mb 0.00 in0.0 mm 0.00 in0.0 mm 0.00 in0.0 mm
01:10 AM 70.1°F21.2°C 66.1°F18.9°C 87% Calm Calm -- 29.95 in1014.2 mb 0.00 in0.0 mm 0.00 in0.0 mm 0.00 in0.0 mm
01:20 AM 70.2°F21.2°C 66.2°F19.0°C 87% Calm Calm -- 29.95 in1014.2 mb 0.00 in0.0 mm 0.00 in0.0 mm 0.00 in0.0 mm
01:30 AM 69.9°F21.1°C 65.9°F18.8°C 87% Calm Calm -- 29.95 in1014.2 mb 0.00 in0.0 mm 0.00 in0.0 mm 0.00 in0.0 mm
01:40 AM 70.2°F21.2°C 66.2°F19.0°C 87% Calm Calm 2.0 mph3.2 kmh 29.94 in1013.9 mb 0.00 in0.0 mm 0.00 in0.0 mm 0.00 in0.0 mm
01:50 AM 70.0°F21.1°C 66.0°F18.9°C 87% Calm Calm 1.0 mph1.6 kmh 29.94 in1013.9 mb 0.00 in0.0 mm 0.00 in0.0 mm 0.00 in0.0 mm
02:00 AM 69.6°F20.9°C 65.6°F18.7°C 87% 1.0 mph S1.6 kmh S 1.0 mph1.6 kmh 29.94 in1013.9 mb 0.00 in0.0 mm 0.00 in0.0 mm 0.00 in0.0 mm
02:10 AM 69.4°F20.8°C 65.4°F18.6°C 87% Calm Calm -- 29.94 in1013.9 mb 0.00 in0.0 mm 0.00 in0.0 mm 0.00 in0.0 mm
02:20 AM 69.3°F20.7°C 65.3°F18.5°C 87% Calm Calm 1.0 mph1.6 kmh 29.94 in1013.9 mb 0.00 in0.0 mm 0.00 in0.0 mm 0.00 in0.0 mm
02:30 AM 69.1°F20.6°C 65.1°F18.4°C 87% Calm Calm -- 29.94 in1013.9 mb 0.00 in0.0 mm 0.00 in0.0 mm 0.00 in0.0 mm
02:40 AM 69.1°F20.6°C 65.1°F18.4°C 87% Calm Calm 1.0 mph1.6 kmh 29.93 in1013.5 mb 0.00 in0.0 mm 0.00 in0.0 mm 0.00 in0.0 mm
02:50 AM 68.9°F20.5°C 64.9°F18.3°C 87% Calm Calm -- 29.94 in1013.9 mb 0.00 in0.0 mm 0.00 in0.0 mm 0.00 in0.0 mm
03:00 AM 68.7°F20.4°C 64.7°F18.2°C 87% Calm Calm -- 29.94 in1013.9 mb 0.00 in0.0 mm 0.00 in0.0 mm 0.00 in0.0 mm
03:10 AM 68.6°F20.3°C 64.6°F18.1°C 87% Calm Calm -- 29.94 in1013.9 mb 0.00 in0.0 mm 0.00 in0.0 mm 0.00 in0.0 mm
03:20 AM 68.7°F20.4°C 64.7°F18.2°C 87% Calm Calm -- 29.94 in1013.9 mb 0.00 in0.0 mm 0.00 in0.0 mm 0.00 in0.0 mm
03:30 AM 68.6°F20.3°C 64.6°F18.1°C 87% Calm Calm -- 29.94 in1013.9 mb 0.00 in0.0 mm 0.00 in0.0 mm 0.00 in0.0 mm
03:40 AM 68.5°F20.3°C 64.5°F18.1°C 87% Calm Calm -- 29.94 in1013.9 mb 0.00 in0.0 mm 0.00 in0.0 mm 0.00 in0.0 mm
03:50 AM 68.5°F20.3°C 64.5°F18.1°C 87% Calm Calm -- 29.95 in1014.2 mb 0.00 in0.0 mm 0.00 in0.0 mm 0.00 in0.0 mm
04:00 AM 68.4°F20.2°C 64.4°F18.0°C 87% Calm Calm -- 29.95 in1014.2 mb 0.00 in0.0 mm 0.00 in0.0 mm 0.00 in0.0 mm
04:10 AM 68.3°F20.2°C 64.3°F17.9°C 87% Calm Calm -- 29.95 in1014.2 mb 0.00 in0.0 mm 0.00 in0.0 mm 0.00 in0.0 mm
04:20 AM 68.1°F20.1°C 64.1°F17.8°C 87% Calm Calm -- 29.95 in1014.2 mb 0.00 in0.0 mm 0.00 in0.0 mm 0.00 in0.0 mm
04:30 AM 68.2°F20.1°C 64.2°F17.9°C 87% Calm Calm -- 29.95 in1014.2 mb 0.00 in0.0 mm 0.00 in0.0 mm 0.00 in0.0 mm
04:40 AM 68.1°F20.1°C 64.1°F17.8°C 87% Calm Calm -- 29.95 in1014.2 mb 0.00 in0.0 mm 0.00 in0.0 mm 0.00 in0.0 mm
04:50 AM 68.1°F20.1°C 64.1°F17.8°C 87% Calm Calm -- 29.95 in1014.2 mb 0.00 in0.0 mm 0.00 in0.0 mm 0.00 in0.0 mm
05:00 AM 68.1°F20.1°C 64.1°F17.8°C 87% Calm Calm -- 29.95 in1014.2 mb 0.00 in0.0 mm 0.00 in0.0 mm 0.00 in0.0 mm
05:10 AM 67.9°F19.9°C 63.9°F17.7°C 87% Calm Calm -- 29.95 in1014.2 mb 0.00 in0.0 mm 0.00 in0.0 mm 0.00 in0.0 mm
05:20 AM 68.0°F20.0°C 64.0°F17.8°C 87% Calm Calm -- 29.95 in1014.2 mb 0.00 in0.0 mm 0.00 in0.0 mm 0.00 in0.0 mm
05:30 AM 68.0°F20.0°C 64.0°F17.8°C 87% Calm Calm -- 29.94 in1013.9 mb 0.00 in0.0 mm 0.00 in0.0 mm 0.00 in0.0 mm
05:40 AM 68.2°F20.1°C 64.2°F17.9°C 87% Calm Calm 1.0 mph1.6 kmh 29.94 in1013.9 mb 0.00 in0.0 mm 0.00 in0.0 mm 0.00 in0.0 mm
05:50 AM 69.0°F20.6°C 65.0°F18.3°C 87% Calm Calm 1.0 mph1.6 kmh 29.94 in1013.9 mb 0.00 in0.0 mm 0.00 in0.0 mm 0.00 in0.0 mm
06:00 AM 69.1°F20.6°C 65.1°F18.4°C 87% Calm Calm 1.0 mph1.6 kmh 29.95 in1014.2 mb 0.00 in0.0 mm 0.00 in0.0 mm 0.00 in0.0 mm
06:10 AM 68.8°F20.4°C 64.8°F18.2°C 87% Calm Calm -- 29.94 in1013.9 mb 0.00 in0.0 mm 0.00 in0.0 mm 0.00 in0.0 mm
06:20 AM 68.7°F20.4°C 64.7°F18.2°C 87% Calm Calm -- 29.94 in1013.9 mb 0.00 in0.0 mm 0.00 in0.0 mm 0.00 in0.0 mm
06:30 AM 68.7°F20.4°C 64.7°F18.2°C 87% Calm Calm -- 29.94 in1013.9 mb 0.00 in0.0 mm 0.00 in0.0 mm 0.00 in0.0 mm
06:40 AM 68.7°F20.4°C 64.7°F18.2°C 87% Calm Calm -- 29.94 in1013.9 mb 0.00 in0.0 mm 0.00 in0.0 mm 0.00 in0.0 mm
06:50 AM 68.6°F20.3°C 64.6°F18.1°C 87% Calm Calm -- 29.94 in1013.9 mb 0.00 in0.0 mm 0.00 in0.0 mm 0.00 in0.0 mm
07:00 AM 68.5°F20.3°C 64.5°F18.1°C 87% Calm Calm -- 29.94 in1013.9 mb 0.00 in0.0 mm 0.00 in0.0 mm 0.00 in0.0 mm
07:10 AM 68.6°F20.3°C 64.6°F18.1°C 87% Calm Calm -- 29.94 in1013.9 mb 0.00 in0.0 mm 0.00 in0.0 mm 0.00 in0.0 mm
07:20 AM 69.2°F20.7°C 65.2°F18.4°C 87% Calm Calm 1.0 mph1.6 kmh 29.95 in1014.2 mb 0.00 in0.0 mm 0.00 in0.0 mm 0.00 in0.0 mm
07:30 AM 69.4°F20.8°C 65.4°F18.6°C 87% Calm Calm 2.0 mph3.2 kmh 29.95 in1014.2 mb 0.00 in0.0 mm 0.00 in0.0 mm 0.00 in0.0 mm
07:40 AM 69.6°F20.9°C 65.6°F18.7°C 87% 1.0 mph S1.6 kmh S 2.0 mph3.2 kmh 29.95 in1014.2 mb 0.00 in0.0 mm 0.00 in0.0 mm 0.00 in0.0 mm
07:50 AM 69.7°F20.9°C 65.7°F18.7°C 87% Calm Calm 2.0 mph3.2 kmh 29.95 in1014.2 mb 0.00 in0.0 mm 0.00 in0.0 mm 0.00 in0.0 mm
08:00 AM 69.9°F21.1°C 65.9°F18.8°C 87% Calm Calm 1.0 mph1.6 kmh 29.95 in1014.2 mb 0.00 in0.0 mm 0.00 in0.0 mm 0.00 in0.0 mm
08:10 AM 70.0°F21.1°C 66.0°F18.9°C 87% 2.0 mph SSW3.2 kmh SSW 3.0 mph4.8 kmh 29.95 in1014.2 mb 0.00 in0.0 mm 0.00 in0.0 mm 0.00 in0.0 mm
08:20 AM 70.1°F21.2°C 66.1°F18.9°C 87% 1.0 mph S1.6 kmh S 3.0 mph4.8 kmh 29.95 in1014.2 mb 0.00 in0.0 mm 0.00 in0.0 mm 0.00 in0.0 mm
08:30 AM 70.4°F21.3°C 66.4°F19.1°C 87% 2.0 mph SSW3.2 kmh SSW 4.0 mph6.4 kmh 29.95 in1014.2 mb 0.00 in0.0 mm 0.00 in0.0 mm 0.00 in0.0 mm
08:40 AM 70.7°F21.5°C 66.7°F19.3°C 87% 2.0 mph S3.2 kmh S 3.0 mph4.8 kmh 29.95 in1014.2 mb 0.00 in0.0 mm 0.00 in0.0 mm 0.00 in0.0 mm
08:50 AM 71.2°F21.8°C 67.1°F19.5°C 87% Calm Calm 4.0 mph6.4 kmh 29.96 in1014.6 mb 0.00 in0.0 mm 0.00 in0.0 mm 0.00 in0.0 mm
09:00 AM 71.8°F22.1°C 67.7°F19.8°C 87% 1.0 mph WSW1.6 kmh WSW 3.0 mph4.8 kmh 29.96 in1014.6 mb 0.00 in0.0 mm 0.00 in0.0 mm 0.00 in0.0 mm
09:10 AM 72.1°F22.3°C 68.0°F20.0°C 87% Calm Calm 3.0 mph4.8 kmh 29.96 in1014.6 mb 0.00 in0.0 mm 0.00 in0.0 mm 0.00 in0.0 mm
09:20 AM 72.4°F22.4°C 68.3°F20.2°C 87% 1.0 mph S1.6 kmh S 3.0 mph4.8 kmh 29.96 in1014.6 mb 0.00 in0.0 mm 0.00 in0.0 mm 0.00 in0.0 mm
09:30 AM 73.0°F22.8°C 68.9°F20.5°C 87% Calm Calm 2.0 mph3.2 kmh 29.96 in1014.6 mb 0.00 in0.0 mm 0.00 in0.0 mm 0.00 in0.0 mm
09:40 AM 73.7°F23.2°C 69.6°F20.9°C 87% 3.0 mph S4.8 kmh S 3.0 mph4.8 kmh 29.96 in1014.6 mb 0.00 in0.0 mm 0.00 in0.0 mm 0.00 in0.0 mm
09:50 AM 74.2°F23.4°C 69.8°F21.0°C 86% 2.0 mph SSW3.2 kmh SSW 3.0 mph4.8 kmh 29.96 in1014.6 mb 0.00 in0.0 mm 0.00 in0.0 mm 0.00 in0.0 mm
10:00 AM 74.8°F23.8°C 70.3°F21.3°C 86% 2.0 mph S3.2 kmh S 5.0 mph8.0 kmh 29.96 in1014.6 mb 0.00 in0.0 mm 0.00 in0.0 mm 0.00 in0.0 mm
10:10 AM 75.2°F24.0°C 70.4°F21.3°C 85% 2.0 mph S3.2 kmh S 3.0 mph4.8 kmh 29.96 in1014.6 mb 0.00 in0.0 mm 0.00 in0.0 mm 0.00 in0.0 mm
10:20 AM 75.6°F24.2°C 70.8°F21.6°C 85% 1.0 mph W1.6 kmh W 3.0 mph4.8 kmh 29.96 in1014.6 mb 0.00 in0.0 mm 0.00 in0.0 mm 0.00 in0.0 mm
10:30 AM 76.1°F24.5°C 70.6°F21.4°C 83% 1.0 mph S1.6 kmh S 4.0 mph6.4 kmh 29.96 in1014.6 mb 0.00 in0.0 mm 0.00 in0.0 mm 0.00 in0.0 mm
10:40 AM 76.3°F24.6°C 70.8°F21.6°C 83% 2.0 mph SSW3.2 kmh SSW 3.0 mph4.8 kmh 29.96 in1014.6 mb 0.00 in0.0 mm 0.00 in0.0 mm 0.00 in0.0 mm
10:50 AM 76.9°F24.9°C 71.4°F21.9°C 83% Calm Calm 4.0 mph6.4 kmh 29.96 in1014.6 mb 0.00 in0.0 mm 0.00 in0.0 mm 0.00 in0.0 mm
11:00 AM 77.9°F25.5°C 72.0°F22.2°C 82% 1.0 mph W1.6 kmh W 2.0 mph3.2 kmh 29.96 in1014.6 mb 0.00 in0.0 mm 0.00 in0.0 mm 0.00 in0.0 mm
11:10 AM 78.7°F25.9°C 72.4°F22.4°C 81% Calm Calm 2.0 mph3.2 kmh 29.96 in1014.6 mb 0.00 in0.0 mm 0.00 in0.0 mm 0.00 in0.0 mm
11:20 AM 79.4°F26.3°C 72.7°F22.6°C 80% 2.0 mph N3.2 kmh N 4.0 mph6.4 kmh 29.96 in1014.6 mb 0.00 in0.0 mm 0.00 in0.0 mm 0.00 in0.0 mm
11:30 AM 79.9°F26.6°C 72.8°F22.7°C 79% 2.0 mph SSE3.2 kmh SSE 4.0 mph6.4 kmh 29.96 in1014.6 mb 0.00 in0.0 mm 0.00 in0.0 mm 0.00 in0.0 mm
11:40 AM 80.6°F27.0°C 73.1°F22.8°C 78% 1.0 mph SSW1.6 kmh SSW 4.0 mph6.4 kmh 29.96 in1014.6 mb 0.00 in0.0 mm 0.00 in0.0 mm 0.00 in0.0 mm
11:50 AM 81.3°F27.4°C 73.4°F23.0°C 77% 2.0 mph ENE3.2 kmh ENE 5.0 mph8.0 kmh 29.96 in1014.6 mb 0.00 in0.0 mm 0.00 in0.0 mm 0.00 in0.0 mm
12:00 PM 82.3°F27.9°C 74.0°F23.3°C 76% 2.0 mph NW3.2 kmh NW 4.0 mph6.4 kmh 29.96 in1014.6 mb 0.00 in0.0 mm 0.00 in0.0 mm 0.00 in0.0 mm
12:10 PM 82.8°F28.2°C 73.7°F23.2°C 74% Calm Calm 3.0 mph4.8 kmh 29.95 in1014.2 mb 0.00 in0.0 mm 0.00 in0.0 mm 0.00 in0.0 mm
12:20 PM 83.7°F28.7°C 74.1°F23.4°C 73% 2.0 mph WNW3.2 kmh WNW 3.0 mph4.8 kmh 29.95 in1014.2 mb 0.00 in0.0 mm 0.00 in0.0 mm 0.00 in0.0 mm
12:30 PM 84.3°F29.1°C 74.3°F23.5°C 72% 4.0 mph S6.4 kmh S 6.0 mph9.7 kmh 29.95 in1014.2 mb 0.00 in0.0 mm 0.00 in0.0 mm 0.00 in0.0 mm
12:40 PM 83.4°F28.6°C 73.0°F22.8°C 71% 2.0 mph SSW3.2 kmh SSW 4.0 mph6.4 kmh 29.95 in1014.2 mb 0.00 in0.0 mm 0.00 in0.0 mm 0.00 in0.0 mm
12:50 PM 83.6°F28.7°C 72.8°F22.7°C 70% 1.0 mph SW1.6 kmh SW 5.0 mph8.0 kmh 29.95 in1014.2 mb 0.00 in0.0 mm 0.00 in0.0 mm 0.00 in0.0 mm
01:00 PM 84.1°F28.9°C 72.8°F22.7°C 69% 2.0 mph SE3.2 kmh SE 3.0 mph4.8 kmh 29.95 in1014.2 mb 0.00 in0.0 mm 0.00 in0.0 mm 0.00 in0.0 mm
01:10 PM 83.8°F28.8°C 73.0°F22.8°C 70% 2.0 mph SW3.2 kmh SW 4.0 mph6.4 kmh 29.94 in1013.9 mb 0.00 in0.0 mm 0.00 in0.0 mm 0.00 in0.0 mm
01:20 PM 84.0°F28.9°C 72.7°F22.6°C 69% 1.0 mph S1.6 kmh S 4.0 mph6.4 kmh 29.94 in1013.9 mb 0.00 in0.0 mm 0.00 in0.0 mm 0.00 in0.0 mm
01:30 PM 83.9°F28.8°C 73.1°F22.8°C 70% 3.0 mph S4.8 kmh S 5.0 mph8.0 kmh 29.94 in1013.9 mb 0.00 in0.0 mm 0.00 in0.0 mm 0.00 in0.0 mm
01:40 PM 83.8°F28.8°C 73.0°F22.8°C 70% 5.0 mph S8.0 kmh S 6.0 mph9.7 kmh 29.93 in1013.5 mb 0.00 in0.0 mm 0.00 in0.0 mm 0.00 in0.0 mm
01:50 PM 84.1°F28.9°C 72.8°F22.7°C 69% 1.0 mph SSW1.6 kmh SSW 5.0 mph8.0 kmh 29.93 in1013.5 mb 0.00 in0.0 mm 0.00 in0.0 mm 0.00 in0.0 mm
02:00 PM 83.8°F28.8°C 73.0°F22.8°C 70% Calm Calm 6.0 mph9.7 kmh 29.93 in1013.5 mb 0.00 in0.0 mm 0.00 in0.0 mm 0.00 in0.0 mm
02:10 PM 84.6°F29.2°C 72.9°F22.7°C 68% 3.0 mph S4.8 kmh S 4.0 mph6.4 kmh 29.92 in1013.2 mb 0.00 in0.0 mm 0.00 in0.0 mm 0.00 in0.0 mm
02:20 PM 83.2°F28.4°C 74.5°F23.6°C 75% 4.0 mph S6.4 kmh S 4.0 mph6.4 kmh 29.92 in1013.2 mb 0.01 in0.3 mm 0.06 in1.5 mm 0.01 in0.3 mm
02:30 PM 80.4°F26.9°C 74.0°F23.3°C 81% Calm Calm 1.0 mph1.6 kmh 29.92 in1013.2 mb 0.03 in0.8 mm 0.12 in3.0 mm 0.03 in0.8 mm
02:40 PM 79.9°F26.6°C 74.3°F23.5°C 83% Calm Calm -- 29.92 in1013.2 mb 0.03 in0.8 mm 0.00 in0.0 mm 0.03 in0.8 mm
02:50 PM 79.6°F26.4°C 74.3°F23.5°C 84% Calm Calm -- 29.91 in1012.9 mb 0.03 in0.8 mm 0.00 in0.0 mm 0.03 in0.8 mm
03:00 PM 79.7°F26.5°C 74.1°F23.4°C 83% Calm Calm -- 29.91 in1012.9 mb 0.03 in0.8 mm 0.00 in0.0 mm 0.03 in0.8 mm
03:10 PM 80.2°F26.8°C 74.6°F23.7°C 83% Calm Calm -- 29.91 in1012.9 mb 0.03 in0.8 mm 0.00 in0.0 mm 0.03 in0.8 mm
03:20 PM 80.6°F27.0°C 75.0°F23.9°C 83% Calm Calm -- 29.91 in1012.9 mb 0.03 in0.8 mm 0.00 in0.0 mm 0.03 in0.8 mm
03:30 PM 81.0°F27.2°C 75.4°F24.1°C 83% Calm Calm -- 29.91 in1012.9 mb 0.00 in0.0 mm 0.00 in0.0 mm 0.03 in0.8 mm
03:40 PM 81.4°F27.4°C 75.7°F24.3°C 83% Calm Calm -- 29.90 in1012.5 mb 0.00 in0.0 mm 0.00 in0.0 mm 0.03 in0.8 mm
03:50 PM 82.6°F28.1°C 75.1°F23.9°C 78% 1.0 mph NW1.6 kmh NW 3.0 mph4.8 kmh 29.89 in1012.2 mb 0.00 in0.0 mm 0.00 in0.0 mm 0.03 in0.8 mm
04:00 PM 85.0°F29.4°C 75.4°F24.1°C 73% 2.0 mph S3.2 kmh S 3.0 mph4.8 kmh 29.89 in1012.2 mb 0.00 in0.0 mm 0.00 in0.0 mm 0.03 in0.8 mm
04:10 PM 85.7°F29.8°C 74.4°F23.6°C 69% Calm Calm 5.0 mph8.0 kmh 29.88 in1011.9 mb 0.00 in0.0 mm 0.00 in0.0 mm 0.03 in0.8 mm
04:20 PM 87.0°F30.6°C 74.7°F23.7°C 67% 5.0 mph SSW8.0 kmh SSW 5.0 mph8.0 kmh 29.88 in1011.9 mb 0.00 in0.0 mm 0.00 in0.0 mm 0.03 in0.8 mm
04:30 PM 85.9°F29.9°C 73.7°F23.2°C 67% 2.0 mph S3.2 kmh S 7.0 mph11.3 kmh 29.88 in1011.9 mb 0.00 in0.0 mm 0.00 in0.0 mm 0.03 in0.8 mm
04:40 PM 85.5°F29.7°C 73.7°F23.2°C 68% 1.0 mph SSW1.6 kmh SSW 5.0 mph8.0 kmh 29.88 in1011.9 mb 0.00 in0.0 mm 0.00 in0.0 mm 0.03 in0.8 mm
04:50 PM 85.6°F29.8°C 74.3°F23.5°C 69% Calm Calm 2.0 mph3.2 kmh 29.88 in1011.9 mb 0.00 in0.0 mm 0.00 in0.0 mm 0.03 in0.8 mm
05:00 PM 85.9°F29.9°C 73.7°F23.2°C 67% 2.0 mph S3.2 kmh S 6.0 mph9.7 kmh 29.87 in1011.5 mb 0.00 in0.0 mm 0.00 in0.0 mm 0.03 in0.8 mm
05:10 PM 86.6°F30.3°C 73.9°F23.3°C 66% 2.0 mph SSW3.2 kmh SSW 9.0 mph14.5 kmh 29.87 in1011.5 mb 0.00 in0.0 mm 0.00 in0.0 mm 0.03 in0.8 mm
05:20 PM 85.1°F29.5°C 72.5°F22.5°C 66% Calm Calm 4.0 mph6.4 kmh 29.86 in1011.2 mb 0.00 in0.0 mm 0.00 in0.0 mm 0.03 in0.8 mm
05:30 PM 84.9°F29.4°C 73.2°F22.9°C 68% Calm Calm 1.0 mph1.6 kmh 29.87 in1011.5 mb 0.00 in0.0 mm 0.00 in0.0 mm 0.03 in0.8 mm
05:40 PM 84.5°F29.2°C 72.4°F22.4°C 67% Calm Calm 2.0 mph3.2 kmh 29.87 in1011.5 mb 0.00 in0.0 mm 0.00 in0.0 mm 0.03 in0.8 mm
05:50 PM 83.9°F28.8°C 73.1°F22.8°C 70% Calm Calm 1.0 mph1.6 kmh 29.87 in1011.5 mb 0.00 in0.0 mm 0.00 in0.0 mm 0.03 in0.8 mm
06:00 PM 84.1°F28.9°C 73.7°F23.2°C 71% Calm Calm 2.0 mph3.2 kmh 29.87 in1011.5 mb 0.00 in0.0 mm 0.00 in0.0 mm 0.03 in0.8 mm
06:10 PM 85.0°F29.4°C 73.7°F23.2°C 69% 2.0 mph SSW3.2 kmh SSW 3.0 mph4.8 kmh 29.86 in1011.2 mb 0.00 in0.0 mm 0.00 in0.0 mm 0.03 in0.8 mm
06:20 PM 83.9°F28.8°C 72.2°F22.3°C 68% 1.0 mph S1.6 kmh S 4.0 mph6.4 kmh 29.86 in1011.2 mb 0.00 in0.0 mm 0.00 in0.0 mm 0.03 in0.8 mm
06:30 PM 82.3°F27.9°C 72.4°F22.4°C 72% 1.0 mph S1.6 kmh S 2.0 mph3.2 kmh 29.86 in1011.2 mb 0.00 in0.0 mm 0.00 in0.0 mm 0.03 in0.8 mm
06:40 PM 81.7°F27.6°C 72.6°F22.6°C 74% 1.0 mph SE1.6 kmh SE 2.0 mph3.2 kmh 29.86 in1011.2 mb 0.00 in0.0 mm 0.00 in0.0 mm 0.03 in0.8 mm
06:50 PM 82.0°F27.8°C 72.9°F22.7°C 74% 1.0 mph SE1.6 kmh SE 3.0 mph4.8 kmh 29.86 in1011.2 mb 0.00 in0.0 mm 0.00 in0.0 mm 0.03 in0.8 mm
07:00 PM 81.2°F27.3°C 72.1°F22.3°C 74% 2.0 mph SE3.2 kmh SE 3.0 mph4.8 kmh 29.86 in1011.2 mb 0.00 in0.0 mm 0.00 in0.0 mm 0.03 in0.8 mm
07:10 PM 80.3°F26.8°C 72.1°F22.3°C 76% 1.0 mph SE1.6 kmh SE 2.0 mph3.2 kmh 29.86 in1011.2 mb 0.00 in0.0 mm 0.00 in0.0 mm 0.03 in0.8 mm
07:20 PM 79.8°F26.6°C 71.6°F22.0°C 76% 1.0 mph SE1.6 kmh SE 2.0 mph3.2 kmh 29.86 in1011.2 mb 0.00 in0.0 mm 0.00 in0.0 mm 0.03 in0.8 mm
07:30 PM 79.6°F26.4°C 71.0°F21.7°C 75% 1.0 mph SE1.6 kmh SE 2.0 mph3.2 kmh 29.87 in1011.5 mb 0.00 in0.0 mm 0.00 in0.0 mm 0.03 in0.8 mm
07:40 PM 80.1°F26.7°C 71.5°F21.9°C 75% 1.0 mph SE1.6 kmh SE 2.0 mph3.2 kmh 29.87 in1011.5 mb 0.00 in0.0 mm 0.00 in0.0 mm 0.03 in0.8 mm
07:50 PM 80.6°F27.0°C 72.0°F22.2°C 75% 1.0 mph SE1.6 kmh SE 2.0 mph3.2 kmh 29.87 in1011.5 mb 0.00 in0.0 mm 0.00 in0.0 mm 0.03 in0.8 mm
08:00 PM 80.7°F27.1°C 71.7°F22.1°C 74% 1.0 mph SE1.6 kmh SE 2.0 mph3.2 kmh 29.87 in1011.5 mb 0.00 in0.0 mm 0.00 in0.0 mm 0.03 in0.8 mm
08:10 PM 80.6°F27.0°C 72.0°F22.2°C 75% Calm Calm 2.0 mph3.2 kmh 29.88 in1011.9 mb 0.00 in0.0 mm 0.00 in0.0 mm 0.03 in0.8 mm
08:20 PM 80.3°F26.8°C 72.1°F22.3°C 76% Calm Calm 1.0 mph1.6 kmh 29.88 in1011.9 mb 0.00 in0.0 mm 0.00 in0.0 mm 0.03 in0.8 mm
08:30 PM 80.0°F26.7°C 72.2°F22.3°C 77% Calm Calm -- 29.88 in1011.9 mb 0.00 in0.0 mm 0.00 in0.0 mm 0.03 in0.8 mm
08:40 PM 79.4°F26.3°C 72.0°F22.2°C 78% Calm Calm 1.0 mph1.6 kmh 29.89 in1012.2 mb 0.00 in0.0 mm 0.00 in0.0 mm 0.03 in0.8 mm
08:50 PM 78.7°F25.9°C 71.6°F22.0°C 79% Calm Calm -- 29.89 in1012.2 mb 0.00 in0.0 mm 0.00 in0.0 mm 0.03 in0.8 mm
09:00 PM 77.9°F25.5°C 71.2°F21.8°C 80% Calm Calm -- 29.89 in1012.2 mb 0.00 in0.0 mm 0.00 in0.0 mm 0.03 in0.8 mm
09:10 PM 77.4°F25.2°C 70.8°F21.6°C 80% Calm Calm -- 29.89 in1012.2 mb 0.00 in0.0 mm 0.00 in0.0 mm 0.03 in0.8 mm
09:20 PM 76.9°F24.9°C 70.6°F21.4°C 81% Calm Calm -- 29.89 in1012.2 mb 0.00 in0.0 mm 0.00 in0.0 mm 0.03 in0.8 mm
09:30 PM 76.5°F24.7°C 70.6°F21.4°C 82% Calm Calm -- 29.90 in1012.5 mb 0.00 in0.0 mm 0.00 in0.0 mm 0.03 in0.8 mm
09:40 PM 76.1°F24.5°C 70.2°F21.2°C 82% Calm Calm -- 29.90 in1012.5 mb 0.00 in0.0 mm 0.00 in0.0 mm 0.03 in0.8 mm
09:50 PM 75.8°F24.3°C 70.3°F21.3°C 83% Calm Calm -- 29.90 in1012.5 mb 0.00 in0.0 mm 0.00 in0.0 mm 0.03 in0.8 mm
10:00 PM 75.5°F24.2°C 70.0°F21.1°C 83% Calm Calm -- 29.90 in1012.5 mb 0.00 in0.0 mm 0.00 in0.0 mm 0.03 in0.8 mm
10:10 PM 75.4°F24.1°C 69.9°F21.1°C 83% Calm Calm 1.0 mph1.6 kmh 29.90 in1012.5 mb 0.00 in0.0 mm 0.00 in0.0 mm 0.03 in0.8 mm
10:20 PM 75.5°F24.2°C 70.3°F21.3°C 84% Calm Calm 1.0 mph1.6 kmh 29.90 in1012.5 mb 0.00 in0.0 mm 0.00 in0.0 mm 0.03 in0.8 mm
10:30 PM 75.4°F24.1°C 70.2°F21.2°C 84% Calm Calm -- 29.91 in1012.9 mb 0.00 in0.0 mm 0.00 in0.0 mm 0.03 in0.8 mm
10:40 PM 75.1°F23.9°C 69.9°F21.1°C 84% Calm Calm -- 29.92 in1013.2 mb 0.00 in0.0 mm 0.00 in0.0 mm 0.03 in0.8 mm
10:50 PM 74.9°F23.8°C 70.1°F21.2°C 85% 2.0 mph ESE3.2 kmh ESE 2.0 mph3.2 kmh 29.92 in1013.2 mb 0.00 in0.0 mm 0.00 in0.0 mm 0.03 in0.8 mm
11:00 PM 75.2°F24.0°C 70.4°F21.3°C 85% 2.0 mph E3.2 kmh E 3.0 mph4.8 kmh 29.93 in1013.5 mb 0.00 in0.0 mm 0.00 in0.0 mm 0.03 in0.8 mm
11:10 PM 74.4°F23.6°C 69.6°F20.9°C 85% 2.0 mph E3.2 kmh E 4.0 mph6.4 kmh 29.93 in1013.5 mb 0.00 in0.0 mm 0.00 in0.0 mm 0.03 in0.8 mm
11:20 PM 73.6°F23.1°C 68.8°F20.4°C 85% 2.0 mph E3.2 kmh E 5.0 mph8.0 kmh 29.93 in1013.5 mb 0.00 in0.0 mm 0.00 in0.0 mm 0.03 in0.8 mm
11:30 PM 73.0°F22.8°C 68.2°F20.1°C 85% 2.0 mph ESE3.2 kmh ESE 4.0 mph6.4 kmh 29.94 in1013.9 mb 0.00 in0.0 mm 0.00 in0.0 mm 0.03 in0.8 mm
11:40 PM 72.6°F22.6°C 68.2°F20.1°C 86% 2.0 mph ESE3.2 kmh ESE 3.0 mph4.8 kmh 29.93 in1013.5 mb 0.00 in0.0 mm 0.00 in0.0 mm 0.03 in0.8 mm
11:50 PM 72.4°F22.4°C 68.0°F20.0°C 86% Calm Calm 2.0 mph3.2 kmh 29.93 in1013.5 mb 0.00 in0.0 mm 0.00 in0.0 mm 0.03 in0.8 mm